Terminal Aerodrome Forecast
Issued by NWS Cleveland, OH

Home | Current Version | Previous Version | Graphics & Text | Print | Product List | Glossary On
Versions: 1 2 3 4 5 6 7 8 9 10 11 12 13 14 15 16 17
132
FTUS41 KCLE 211731
TAFERI
TAF
KERI 211731Z 2118/2218 18014G20KT 6SM -SHRA SCT015 OVC030
      TEMPO 2118/2121 5SM -SHRA BKN015
     FM212100 20014G22KT P6SM BKN015 OVC025
     FM220000 20012KT 6SM -SHRA VCTS OVC015CB
     FM220300 20008KT 6SM BR BKN030=

USA.gov is the U.S. government's official web portal to all federal, state and local government web resources and services.